Terminal Aerodrome Forecast
Issued by NWS Cleveland, OH

Home | Current Version | Previous Version | Graphics & Text | Print | Product List | Glossary On
Versions: 1 2 3 4 5 6 7 8 9 10 11 12 13 14 15 16 17 18 19 20
000
FTUS41 KCLE 231500 AAA
TAFERI
TAF AMD
KERI 231533Z 2316/2412 16010KT P6SM BKN015 OVC060
      TEMPO 2316/2320 SCT015 BKN050
     FM240300 14007KT P6SM OVC070
     FM240800 16008KT 4SM -SHRA BR OVC035=

USA.gov is the U.S. government's official web portal to all federal, state and local government web resources and services.